sensor_id;sensor_type;location;lat;lon;timestamp;temperature;humidity
52731;DHT22;38624;53.242;6.974;2023-11-21T00:01:02;8.40;99.90
52731;DHT22;38624;53.242;6.974;2023-11-21T00:03:30;8.30;99.90
52731;DHT22;38624;53.242;6.974;2023-11-21T00:05:56;8.20;99.90
52731;DHT22;38624;53.242;6.974;2023-11-21T00:08:21;8.20;99.90
52731;DHT22;38624;53.242;6.974;2023-11-21T00:10:47;8.50;99.90
52731;DHT22;38624;53.242;6.974;2023-11-21T00:13:13;8.20;99.90
52731;DHT22;38624;53.242;6.974;2023-11-21T00:15:39;8.20;99.90
52731;DHT22;38624;53.242;6.974;2023-11-21T00:18:06;8.20;99.90
52731;DHT22;38624;53.242;6.974;2023-11-21T00:20:31;8.20;99.90
52731;DHT22;38624;53.242;6.974;2023-11-21T00:22:57;8.20;99.90
52731;DHT22;38624;53.242;6.974;2023-11-21T00:25:25;8.20;99.90
52731;DHT22;38624;53.242;6.974;2023-11-21T00:27:50;8.90;99.90
52731;DHT22;38624;53.242;6.974;2023-11-21T00:30:16;8.10;99.90
52731;DHT22;38624;53.242;6.974;2023-11-21T00:32:42;8.10;99.90
52731;DHT22;38624;53.242;6.974;2023-11-21T00:35:08;8.20;99.90
52731;DHT22;38624;53.242;6.974;2023-11-21T00:37:34;8.00;99.90
52731;DHT22;38624;53.242;6.974;2023-11-21T00:40:00;8.20;99.90
52731;DHT22;38624;53.242;6.974;2023-11-21T00:42:29;8.10;99.90
52731;DHT22;38624;53.242;6.974;2023-11-21T00:44:54;8.00;99.90
52731;DHT22;38624;53.242;6.974;2023-11-21T00:47:20;8.00;99.90
52731;DHT22;38624;53.242;6.974;2023-11-21T00:49:45;8.30;99.90
52731;DHT22;38624;53.242;6.974;2023-11-21T00:52:11;8.40;99.90
52731;DHT22;38624;53.242;6.974;2023-11-21T00:54:37;8.20;99.90
52731;DHT22;38624;53.242;6.974;2023-11-21T00:57:03;8.20;99.90
52731;DHT22;38624;53.242;6.974;2023-11-21T00:59:29;8.50;99.90
52731;DHT22;38624;53.242;6.974;2023-11-21T01:01:55;8.40;99.90
52731;DHT22;38624;53.242;6.974;2023-11-21T01:04:21;8.60;99.90
52731;DHT22;38624;53.242;6.974;2023-11-21T01:06:47;8.40;99.90
52731;DHT22;38624;53.242;6.974;2023-11-21T01:09:13;8.50;99.90
52731;DHT22;38624;53.242;6.974;2023-11-21T01:11:38;8.50;99.90
52731;DHT22;38624;53.242;6.974;2023-11-21T01:14:05;8.50;99.90
52731;DHT22;38624;53.242;6.974;2023-11-21T01:16:31;8.50;99.90
52731;DHT22;38624;53.242;6.974;2023-11-21T01:19:00;8.60;99.90
52731;DHT22;38624;53.242;6.974;2023-11-21T01:21:26;8.60;99.90
52731;DHT22;38624;53.242;6.974;2023-11-21T01:23:53;8.50;99.90
52731;DHT22;38624;53.242;6.974;2023-11-21T01:26:20;8.60;99.90
52731;DHT22;38624;53.242;6.974;2023-11-21T01:28:46;8.60;99.90
52731;DHT22;38624;53.242;6.974;2023-11-21T01:31:15;8.60;99.90
52731;DHT22;38624;53.242;6.974;2023-11-21T01:33:40;8.80;99.90
52731;DHT22;38624;53.242;6.974;2023-11-21T01:36:06;8.60;99.90
52731;DHT22;38624;53.242;6.974;2023-11-21T01:38:32;8.60;99.90
52731;DHT22;38624;53.242;6.974;2023-11-21T01:40:58;8.60;99.90
52731;DHT22;38624;53.242;6.974;2023-11-21T01:43:26;8.60;99.90
52731;DHT22;38624;53.242;6.974;2023-11-21T01:45:55;8.70;99.90
52731;DHT22;38624;53.242;6.974;2023-11-21T01:48:23;8.70;99.90
52731;DHT22;38624;53.242;6.974;2023-11-21T01:50:49;8.70;99.90
52731;DHT22;38624;53.242;6.974;2023-11-21T01:53:15;8.70;99.90
52731;DHT22;38624;53.242;6.974;2023-11-21T01:55:41;8.70;99.90
52731;DHT22;38624;53.242;6.974;2023-11-21T01:58:09;8.70;99.90
52731;DHT22;38624;53.242;6.974;2023-11-21T02:00:35;8.70;99.90
52731;DHT22;38624;53.242;6.974;2023-11-21T02:03:01;8.70;99.90
52731;DHT22;38624;53.242;6.974;2023-11-21T02:05:27;8.70;99.90
52731;DHT22;38624;53.242;6.974;2023-11-21T02:07:54;8.70;99.90
52731;DHT22;38624;53.242;6.974;2023-11-21T02:10:22;8.70;99.90
52731;DHT22;38624;53.242;6.974;2023-11-21T02:12:50;8.80;99.90
52731;DHT22;38624;53.242;6.974;2023-11-21T02:15:16;8.80;99.90
52731;DHT22;38624;53.242;6.974;2023-11-21T02:17:46;8.80;99.90
52731;DHT22;38624;53.242;6.974;2023-11-21T02:20:17;8.80;99.90
52731;DHT22;38624;53.242;6.974;2023-11-21T02:22:53;8.80;99.90
52731;DHT22;38624;53.242;6.974;2023-11-21T02:25:24;8.80;99.90
52731;DHT22;38624;53.242;6.974;2023-11-21T02:27:50;8.80;99.90
52731;DHT22;38624;53.242;6.974;2023-11-21T02:30:16;8.90;99.90
52731;DHT22;38624;53.242;6.974;2023-11-21T02:32:42;8.80;99.90
52731;DHT22;38624;53.242;6.974;2023-11-21T02:35:09;8.80;99.90
52731;DHT22;38624;53.242;6.974;2023-11-21T02:37:34;8.80;99.90
52731;DHT22;38624;53.242;6.974;2023-11-21T02:40:01;8.80;99.90
52731;DHT22;38624;53.242;6.974;2023-11-21T02:42:30;8.80;99.90
52731;DHT22;38624;53.242;6.974;2023-11-21T02:44:56;8.80;99.90
52731;DHT22;38624;53.242;6.974;2023-11-21T02:47:22;9.10;99.90
52731;DHT22;38624;53.242;6.974;2023-11-21T02:49:49;8.80;99.90
52731;DHT22;38624;53.242;6.974;2023-11-21T02:52:15;8.80;99.90
52731;DHT22;38624;53.242;6.974;2023-11-21T02:54:40;9.30;99.90
52731;DHT22;38624;53.242;6.974;2023-11-21T02:57:06;9.20;99.90
52731;DHT22;38624;53.242;6.974;2023-11-21T02:59:33;8.80;99.90
52731;DHT22;38624;53.242;6.974;2023-11-21T03:01:58;8.80;99.90
52731;DHT22;38624;53.242;6.974;2023-11-21T03:04:24;8.80;99.90
52731;DHT22;38624;53.242;6.974;2023-11-21T03:06:50;8.80;99.90
52731;DHT22;38624;53.242;6.974;2023-11-21T03:09:15;8.80;99.90
52731;DHT22;38624;53.242;6.974;2023-11-21T03:11:41;9.00;99.90
52731;DHT22;38624;53.242;6.974;2023-11-21T03:14:07;8.80;99.90
52731;DHT22;38624;53.242;6.974;2023-11-21T03:16:33;8.80;99.90
52731;DHT22;38624;53.242;6.974;2023-11-21T03:18:59;8.80;99.90
52731;DHT22;38624;53.242;6.974;2023-11-21T03:21:25;8.80;99.90
52731;DHT22;38624;53.242;6.974;2023-11-21T03:23:51;8.80;99.90
52731;DHT22;38624;53.242;6.974;2023-11-21T03:26:18;8.80;99.90
52731;DHT22;38624;53.242;6.974;2023-11-21T03:28:44;8.70;99.90
52731;DHT22;38624;53.242;6.974;2023-11-21T03:31:09;8.80;99.90
52731;DHT22;38624;53.242;6.974;2023-11-21T03:33:35;8.80;99.90
52731;DHT22;38624;53.242;6.974;2023-11-21T03:36:01;8.80;99.90
52731;DHT22;38624;53.242;6.974;2023-11-21T03:38:27;8.80;99.90
52731;DHT22;38624;53.242;6.974;2023-11-21T03:40:53;9.00;99.90
52731;DHT22;38624;53.242;6.974;2023-11-21T03:43:19;8.80;99.90
52731;DHT22;38624;53.242;6.974;2023-11-21T03:45:44;8.90;99.90
52731;DHT22;38624;53.242;6.974;2023-11-21T03:48:12;8.80;99.90
52731;DHT22;38624;53.242;6.974;2023-11-21T03:50:38;9.30;99.90
52731;DHT22;38624;53.242;6.974;2023-11-21T03:53:04;8.70;99.90
52731;DHT22;38624;53.242;6.974;2023-11-21T03:55:30;8.80;99.90
52731;DHT22;38624;53.242;6.974;2023-11-21T03:57:58;8.90;99.90
52731;DHT22;38624;53.242;6.974;2023-11-21T04:00:24;8.80;99.90
52731;DHT22;38624;53.242;6.974;2023-11-21T04:02:52;8.80;99.90
52731;DHT22;38624;53.242;6.974;2023-11-21T04:05:20;8.80;99.90
52731;DHT22;38624;53.242;6.974;2023-11-21T04:07:48;8.70;99.90
52731;DHT22;38624;53.242;6.974;2023-11-21T04:10:14;8.80;99.90
52731;DHT22;38624;53.242;6.974;2023-11-21T04:12:41;8.70;99.90
52731;DHT22;38624;53.242;6.974;2023-11-21T04:15:07;8.80;99.90
52731;DHT22;38624;53.242;6.974;2023-11-21T04:17:34;8.70;99.90
52731;DHT22;38624;53.242;6.974;2023-11-21T04:20:00;8.70;99.90
52731;DHT22;38624;53.242;6.974;2023-11-21T04:22:26;8.80;99.90
52731;DHT22;38624;53.242;6.974;2023-11-21T04:24:52;8.80;99.90
52731;DHT22;38624;53.242;6.974;2023-11-21T04:27:17;8.70;99.90
52731;DHT22;38624;53.242;6.974;2023-11-21T04:29:44;8.70;99.90
52731;DHT22;38624;53.242;6.974;2023-11-21T04:32:09;8.70;99.90
52731;DHT22;38624;53.242;6.974;2023-11-21T04:34:36;8.70;99.90
52731;DHT22;38624;53.242;6.974;2023-11-21T04:37:01;8.80;99.90
52731;DHT22;38624;53.242;6.974;2023-11-21T04:39:28;8.70;99.90
52731;DHT22;38624;53.242;6.974;2023-11-21T04:41:54;9.00;99.90
52731;DHT22;38624;53.242;6.974;2023-11-21T04:44:20;8.70;99.90
52731;DHT22;38624;53.242;6.974;2023-11-21T04:46:45;8.70;99.90
52731;DHT22;38624;53.242;6.974;2023-11-21T04:49:11;8.80;99.90
52731;DHT22;38624;53.242;6.974;2023-11-21T04:51:37;8.90;99.90
52731;DHT22;38624;53.242;6.974;2023-11-21T04:54:02;8.90;99.90
52731;DHT22;38624;53.242;6.974;2023-11-21T04:56:28;8.70;99.90
52731;DHT22;38624;53.242;6.974;2023-11-21T04:58:54;8.80;99.90
52731;DHT22;38624;53.242;6.974;2023-11-21T05:01:20;8.80;99.90
52731;DHT22;38624;53.242;6.974;2023-11-21T05:03:46;8.80;99.90
52731;DHT22;38624;53.242;6.974;2023-11-21T05:06:13;8.90;99.90
52731;DHT22;38624;53.242;6.974;2023-11-21T05:08:40;8.90;99.90
52731;DHT22;38624;53.242;6.974;2023-11-21T05:11:05;9.20;99.90
52731;DHT22;38624;53.242;6.974;2023-11-21T05:13:35;8.90;99.90
52731;DHT22;38624;53.242;6.974;2023-11-21T05:16:01;8.80;99.90
52731;DHT22;38624;53.242;6.974;2023-11-21T05:18:29;8.90;99.90
52731;DHT22;38624;53.242;6.974;2023-11-21T05:20:55;8.90;99.90
52731;DHT22;38624;53.242;6.974;2023-11-21T05:23:21;8.90;99.90
52731;DHT22;38624;53.242;6.974;2023-11-21T05:25:47;9.10;99.90
52731;DHT22;38624;53.242;6.974;2023-11-21T05:28:13;9.00;99.90
52731;DHT22;38624;53.242;6.974;2023-11-21T05:30:38;9.00;99.90
52731;DHT22;38624;53.242;6.974;2023-11-21T05:33:05;9.00;99.90
52731;DHT22;38624;53.242;6.974;2023-11-21T05:35:31;9.10;99.90
52731;DHT22;38624;53.242;6.974;2023-11-21T05:37:57;9.10;99.90
52731;DHT22;38624;53.242;6.974;2023-11-21T05:40:22;9.50;99.90
52731;DHT22;38624;53.242;6.974;2023-11-21T05:42:49;9.10;99.90
52731;DHT22;38624;53.242;6.974;2023-11-21T05:45:14;9.00;99.90
52731;DHT22;38624;53.242;6.974;2023-11-21T05:47:45;9.00;99.90
52731;DHT22;38624;53.242;6.974;2023-11-21T05:50:13;9.00;99.90
52731;DHT22;38624;53.242;6.974;2023-11-21T05:52:44;8.90;99.90
52731;DHT22;38624;53.242;6.974;2023-11-21T05:55:10;8.90;99.90
52731;DHT22;38624;53.242;6.974;2023-11-21T05:57:37;8.80;99.90
52731;DHT22;38624;53.242;6.974;2023-11-21T06:00:11;8.80;99.90
52731;DHT22;38624;53.242;6.974;2023-11-21T06:02:39;8.80;99.90
52731;DHT22;38624;53.242;6.974;2023-11-21T06:05:08;8.90;99.90
52731;DHT22;38624;53.242;6.974;2023-11-21T06:07:35;8.80;99.90
52731;DHT22;38624;53.242;6.974;2023-11-21T06:10:04;8.80;99.90
52731;DHT22;38624;53.242;6.974;2023-11-21T06:12:35;8.80;99.90
52731;DHT22;38624;53.242;6.974;2023-11-21T06:15:05;8.80;99.90
52731;DHT22;38624;53.242;6.974;2023-11-21T06:17:32;8.80;99.90
52731;DHT22;38624;53.242;6.974;2023-11-21T06:19:59;8.70;99.90
52731;DHT22;38624;53.242;6.974;2023-11-21T06:22:26;8.70;99.90
52731;DHT22;38624;53.242;6.974;2023-11-21T06:24:51;8.70;99.90
52731;DHT22;38624;53.242;6.974;2023-11-21T06:27:17;8.60;99.90
52731;DHT22;38624;53.242;6.974;2023-11-21T06:29:43;8.60;99.90
52731;DHT22;38624;53.242;6.974;2023-11-21T06:32:09;8.60;99.90
52731;DHT22;38624;53.242;6.974;2023-11-21T06:34:35;8.80;99.90
52731;DHT22;38624;53.242;6.974;2023-11-21T06:37:00;8.60;99.90
52731;DHT22;38624;53.242;6.974;2023-11-21T06:39:26;8.40;99.90
52731;DHT22;38624;53.242;6.974;2023-11-21T06:41:53;8.40;99.90
52731;DHT22;38624;53.242;6.974;2023-11-21T06:44:18;8.40;99.90
52731;DHT22;38624;53.242;6.974;2023-11-21T06:46:45;8.70;99.90
52731;DHT22;38624;53.242;6.974;2023-11-21T06:49:11;8.40;99.90
52731;DHT22;38624;53.242;6.974;2023-11-21T06:51:37;8.30;99.90
52731;DHT22;38624;53.242;6.974;2023-11-21T06:54:02;8.30;99.90
52731;DHT22;38624;53.242;6.974;2023-11-21T06:56:28;8.30;99.90
52731;DHT22;38624;53.242;6.974;2023-11-21T06:58:54;8.30;99.90
52731;DHT22;38624;53.242;6.974;2023-11-21T07:01:20;8.30;99.90
52731;DHT22;38624;53.242;6.974;2023-11-21T07:03:45;8.30;99.90
52731;DHT22;38624;53.242;6.974;2023-11-21T07:06:11;8.30;99.90
52731;DHT22;38624;53.242;6.974;2023-11-21T07:08:37;8.40;99.90
52731;DHT22;38624;53.242;6.974;2023-11-21T07:11:04;8.40;99.90
52731;DHT22;38624;53.242;6.974;2023-11-21T07:13:30;8.40;99.90
52731;DHT22;38624;53.242;6.974;2023-11-21T07:15:57;8.30;99.90
52731;DHT22;38624;53.242;6.974;2023-11-21T07:18:23;8.20;99.90
52731;DHT22;38624;53.242;6.974;2023-11-21T07:20:48;8.20;99.90
52731;DHT22;38624;53.242;6.974;2023-11-21T07:23:14;8.30;99.90
52731;DHT22;38624;53.242;6.974;2023-11-21T07:25:41;8.60;99.90
52731;DHT22;38624;53.242;6.974;2023-11-21T07:28:08;8.30;99.90
52731;DHT22;38624;53.242;6.974;2023-11-21T07:30:34;8.30;99.90
52731;DHT22;38624;53.242;6.974;2023-11-21T07:33:00;8.30;99.90
52731;DHT22;38624;53.242;6.974;2023-11-21T07:35:26;8.30;99.90
52731;DHT22;38624;53.242;6.974;2023-11-21T07:37:52;8.20;99.90
52731;DHT22;38624;53.242;6.974;2023-11-21T07:40:18;8.20;99.90
52731;DHT22;38624;53.242;6.974;2023-11-21T07:42:43;8.20;99.90
52731;DHT22;38624;53.242;6.974;2023-11-21T07:45:09;8.20;99.90
52731;DHT22;38624;53.242;6.974;2023-11-21T07:47:35;8.20;99.90
52731;DHT22;38624;53.242;6.974;2023-11-21T07:50:02;8.20;99.90
52731;DHT22;38624;53.242;6.974;2023-11-21T07:52:28;8.20;99.90
52731;DHT22;38624;53.242;6.974;2023-11-21T07:54:54;8.30;99.90
52731;DHT22;38624;53.242;6.974;2023-11-21T07:57:20;8.40;99.90
52731;DHT22;38624;53.242;6.974;2023-11-21T07:59:45;8.30;99.90
52731;DHT22;38624;53.242;6.974;2023-11-21T08:02:11;8.30;99.90
52731;DHT22;38624;53.242;6.974;2023-11-21T08:04:37;8.40;99.90
52731;DHT22;38624;53.242;6.974;2023-11-21T08:07:03;8.50;99.90
52731;DHT22;38624;53.242;6.974;2023-11-21T08:09:29;8.50;99.90
52731;DHT22;38624;53.242;6.974;2023-11-21T08:11:55;8.40;99.90
52731;DHT22;38624;53.242;6.974;2023-11-21T08:14:22;8.50;99.90
52731;DHT22;38624;53.242;6.974;2023-11-21T08:16:51;8.50;99.90
52731;DHT22;38624;53.242;6.974;2023-11-21T08:19:16;8.50;99.90
52731;DHT22;38624;53.242;6.974;2023-11-21T08:21:43;8.40;99.90
52731;DHT22;38624;53.242;6.974;2023-11-21T08:24:10;8.50;99.90
52731;DHT22;38624;53.242;6.974;2023-11-21T08:26:37;8.50;99.90
52731;DHT22;38624;53.242;6.974;2023-11-21T08:29:03;8.70;99.90
52731;DHT22;38624;53.242;6.974;2023-11-21T08:31:29;8.50;99.90
52731;DHT22;38624;53.242;6.974;2023-11-21T08:33:55;8.50;99.90
52731;DHT22;38624;53.242;6.974;2023-11-21T08:36:22;8.60;99.90
52731;DHT22;38624;53.242;6.974;2023-11-21T08:38:50;8.50;99.90
52731;DHT22;38624;53.242;6.974;2023-11-21T08:41:18;8.50;99.90
52731;DHT22;38624;53.242;6.974;2023-11-21T08:43:48;8.40;99.90
52731;DHT22;38624;53.242;6.974;2023-11-21T08:46:14;8.40;99.90
52731;DHT22;38624;53.242;6.974;2023-11-21T08:48:41;8.50;99.90
52731;DHT22;38624;53.242;6.974;2023-11-21T08:51:09;8.50;99.90
52731;DHT22;38624;53.242;6.974;2023-11-21T08:53:35;8.50;99.90
52731;DHT22;38624;53.242;6.974;2023-11-21T08:56:01;8.50;99.90
52731;DHT22;38624;53.242;6.974;2023-11-21T08:58:27;8.50;99.90
52731;DHT22;38624;53.242;6.974;2023-11-21T09:00:53;8.80;99.90
52731;DHT22;38624;53.242;6.974;2023-11-21T09:03:18;8.60;99.90
52731;DHT22;38624;53.242;6.974;2023-11-21T09:05:44;8.60;99.90
52731;DHT22;38624;53.242;6.974;2023-11-21T09:08:10;8.70;99.90
52731;DHT22;38624;53.242;6.974;2023-11-21T09:10:36;8.60;99.90
52731;DHT22;38624;53.242;6.974;2023-11-21T09:13:02;8.60;99.90
52731;DHT22;38624;53.242;6.974;2023-11-21T09:15:28;8.90;99.90
52731;DHT22;38624;53.242;6.974;2023-11-21T09:17:54;8.50;99.90
52731;DHT22;38624;53.242;6.974;2023-11-21T09:20:19;8.60;99.90
52731;DHT22;38624;53.242;6.974;2023-11-21T09:22:48;8.50;99.90
52731;DHT22;38624;53.242;6.974;2023-11-21T09:25:15;8.40;99.90
52731;DHT22;38624;53.242;6.974;2023-11-21T09:27:41;8.30;99.90
52731;DHT22;38624;53.242;6.974;2023-11-21T09:30:07;8.60;99.90
52731;DHT22;38624;53.242;6.974;2023-11-21T09:32:37;8.50;99.90
52731;DHT22;38624;53.242;6.974;2023-11-21T09:35:06;8.40;99.90
52731;DHT22;38624;53.242;6.974;2023-11-21T09:37:35;8.40;99.90
52731;DHT22;38624;53.242;6.974;2023-11-21T09:40:04;8.40;99.90
52731;DHT22;38624;53.242;6.974;2023-11-21T09:42:48;8.50;99.90
52731;DHT22;38624;53.242;6.974;2023-11-21T09:45:28;8.60;99.90
52731;DHT22;38624;53.242;6.974;2023-11-21T09:47:57;8.90;99.90
52731;DHT22;38624;53.242;6.974;2023-11-21T09:50:23;8.50;99.90
52731;DHT22;38624;53.242;6.974;2023-11-21T09:55:36;8.50;99.90
52731;DHT22;38624;53.242;6.974;2023-11-21T09:58:04;8.60;99.90
52731;DHT22;38624;53.242;6.974;2023-11-21T10:00:33;8.50;99.90
52731;DHT22;38624;53.242;6.974;2023-11-21T10:02:59;8.60;99.90
52731;DHT22;38624;53.242;6.974;2023-11-21T10:05:25;8.60;99.90
52731;DHT22;38624;53.242;6.974;2023-11-21T10:07:52;8.70;99.90
52731;DHT22;38624;53.242;6.974;2023-11-21T10:10:20;8.70;99.90
52731;DHT22;38624;53.242;6.974;2023-11-21T10:12:50;8.80;99.90
52731;DHT22;38624;53.242;6.974;2023-11-21T10:15:21;8.70;99.90
52731;DHT22;38624;53.242;6.974;2023-11-21T10:17:49;8.60;99.90
52731;DHT22;38624;53.242;6.974;2023-11-21T10:20:16;8.60;99.90
52731;DHT22;38624;53.242;6.974;2023-11-21T10:22:42;8.70;99.90
52731;DHT22;38624;53.242;6.974;2023-11-21T10:25:12;8.70;99.90
52731;DHT22;38624;53.242;6.974;2023-11-21T10:27:40;8.80;99.90
52731;DHT22;38624;53.242;6.974;2023-11-21T10:30:07;9.20;99.90
52731;DHT22;38624;53.242;6.974;2023-11-21T10:32:33;8.80;99.90
52731;DHT22;38624;53.242;6.974;2023-11-21T10:35:00;8.80;99.90
52731;DHT22;38624;53.242;6.974;2023-11-21T10:37:33;8.80;99.90
52731;DHT22;38624;53.242;6.974;2023-11-21T10:39:59;8.90;99.90
52731;DHT22;38624;53.242;6.974;2023-11-21T10:42:25;8.80;99.90
52731;DHT22;38624;53.242;6.974;2023-11-21T10:44:52;8.90;99.90
52731;DHT22;38624;53.242;6.974;2023-11-21T10:47:18;8.90;99.90
52731;DHT22;38624;53.242;6.974;2023-11-21T10:49:45;8.90;99.90
52731;DHT22;38624;53.242;6.974;2023-11-21T10:52:13;8.90;99.90
52731;DHT22;38624;53.242;6.974;2023-11-21T10:54:45;9.00;99.90
52731;DHT22;38624;53.242;6.974;2023-11-21T10:57:12;9.20;99.90
52731;DHT22;38624;53.242;6.974;2023-11-21T10:59:41;9.10;99.90
52731;DHT22;38624;53.242;6.974;2023-11-21T11:02:25;9.10;99.90
52731;DHT22;38624;53.242;6.974;2023-11-21T11:04:54;9.20;99.90
52731;DHT22;38624;53.242;6.974;2023-11-21T11:07:26;9.20;99.90
52731;DHT22;38624;53.242;6.974;2023-11-21T11:09:56;9.20;99.90
52731;DHT22;38624;53.242;6.974;2023-11-21T11:12:23;9.10;99.90
52731;DHT22;38624;53.242;6.974;2023-11-21T11:14:49;9.10;99.90
52731;DHT22;38624;53.242;6.974;2023-11-21T11:17:17;9.20;99.90
52731;DHT22;38624;53.242;6.974;2023-11-21T11:19:47;9.10;99.90
52731;DHT22;38624;53.242;6.974;2023-11-21T11:24:58;9.20;99.90
52731;DHT22;38624;53.242;6.974;2023-11-21T11:27:35;9.20;99.90
52731;DHT22;38624;53.242;6.974;2023-11-21T11:35:34;9.20;99.90
52731;DHT22;38624;53.242;6.974;2023-11-21T11:38:03;9.30;99.90
52731;DHT22;38624;53.242;6.974;2023-11-21T11:40:47;9.20;99.90
52731;DHT22;38624;53.242;6.974;2023-11-21T11:45:40;9.30;99.90
52731;DHT22;38624;53.242;6.974;2023-11-21T11:48:11;9.10;99.90
52731;DHT22;38624;53.242;6.974;2023-11-21T11:51:27;9.20;99.90
52731;DHT22;38624;53.242;6.974;2023-11-21T11:53:41;9.20;99.90
52731;DHT22;38624;53.242;6.974;2023-11-21T11:56:26;9.00;99.90
52731;DHT22;38624;53.242;6.974;2023-11-21T11:58:58;9.00;99.90
52731;DHT22;38624;53.242;6.974;2023-11-21T12:01:27;8.90;99.90
52731;DHT22;38624;53.242;6.974;2023-11-21T12:06:41;8.10;99.90
52731;DHT22;38624;53.242;6.974;2023-11-21T12:09:09;8.00;99.90
52731;DHT22;38624;53.242;6.974;2023-11-21T12:11:41;7.90;99.90
52731;DHT22;38624;53.242;6.974;2023-11-21T12:14:09;7.80;99.90
52731;DHT22;38624;53.242;6.974;2023-11-21T12:16:35;7.80;99.90
52731;DHT22;38624;53.242;6.974;2023-11-21T12:19:01;8.10;99.90
52731;DHT22;38624;53.242;6.974;2023-11-21T12:21:27;7.90;99.90
52731;DHT22;38624;53.242;6.974;2023-11-21T12:23:54;7.90;99.90
52731;DHT22;38624;53.242;6.974;2023-11-21T12:26:19;8.10;99.90
52731;DHT22;38624;53.242;6.974;2023-11-21T12:28:55;7.90;99.90
52731;DHT22;38624;53.242;6.974;2023-11-21T12:31:23;7.90;99.90
52731;DHT22;38624;53.242;6.974;2023-11-21T12:33:50;7.90;99.90
52731;DHT22;38624;53.242;6.974;2023-11-21T12:36:16;8.00;99.90
52731;DHT22;38624;53.242;6.974;2023-11-21T12:38:42;7.80;99.90
52731;DHT22;38624;53.242;6.974;2023-11-21T12:41:11;7.90;99.90
52731;DHT22;38624;53.242;6.974;2023-11-21T12:43:37;7.60;99.90
52731;DHT22;38624;53.242;6.974;2023-11-21T12:46:08;7.60;99.90
52731;DHT22;38624;53.242;6.974;2023-11-21T12:48:39;7.60;99.90
52731;DHT22;38624;53.242;6.974;2023-11-21T12:51:08;7.90;99.90
52731;DHT22;38624;53.242;6.974;2023-11-21T12:53:35;7.50;99.90
52731;DHT22;38624;53.242;6.974;2023-11-21T12:56:13;7.50;99.90
52731;DHT22;38624;53.242;6.974;2023-11-21T12:58:44;7.50;99.90
52731;DHT22;38624;53.242;6.974;2023-11-21T13:01:13;7.40;99.90
52731;DHT22;38624;53.242;6.974;2023-11-21T13:03:43;7.90;99.90
52731;DHT22;38624;53.242;6.974;2023-11-21T13:06:11;7.40;99.90
52731;DHT22;38624;53.242;6.974;2023-11-21T13:08:37;8.10;99.90
52731;DHT22;38624;53.242;6.974;2023-11-21T13:11:05;7.40;99.90
52731;DHT22;38624;53.242;6.974;2023-11-21T13:13:31;7.40;99.90
52731;DHT22;38624;53.242;6.974;2023-11-21T13:16:00;7.50;99.90
52731;DHT22;38624;53.242;6.974;2023-11-21T13:18:32;7.50;99.90
52731;DHT22;38624;53.242;6.974;2023-11-21T13:21:05;7.60;99.90
52731;DHT22;38624;53.242;6.974;2023-11-21T13:23:37;7.60;99.90
52731;DHT22;38624;53.242;6.974;2023-11-21T13:26:03;7.70;99.90
52731;DHT22;38624;53.242;6.974;2023-11-21T13:28:30;7.70;99.90
52731;DHT22;38624;53.242;6.974;2023-11-21T13:30:59;7.80;99.90
52731;DHT22;38624;53.242;6.974;2023-11-21T13:33:37;7.90;99.90
52731;DHT22;38624;53.242;6.974;2023-11-21T13:36:06;7.90;99.90
52731;DHT22;38624;53.242;6.974;2023-11-21T13:38:35;8.00;99.90
52731;DHT22;38624;53.242;6.974;2023-11-21T13:41:03;7.90;99.90
52731;DHT22;38624;53.242;6.974;2023-11-21T13:43:32;6.70;99.90
52731;DHT22;38624;53.242;6.974;2023-11-21T13:45:59;7.80;99.90
52731;DHT22;38624;53.242;6.974;2023-11-21T13:48:28;8.00;99.90
52731;DHT22;38624;53.242;6.974;2023-11-21T13:51:03;7.70;99.90
52731;DHT22;38624;53.242;6.974;2023-11-21T13:53:47;7.70;99.90
52731;DHT22;38624;53.242;6.974;2023-11-21T13:56:16;7.70;99.90
52731;DHT22;38624;53.242;6.974;2023-11-21T13:58:53;7.80;99.90
52731;DHT22;38624;53.242;6.974;2023-11-21T14:01:28;8.00;99.90
52731;DHT22;38624;53.242;6.974;2023-11-21T14:03:58;7.60;99.90
52731;DHT22;38624;53.242;6.974;2023-11-21T14:06:34;7.50;99.90
52731;DHT22;38624;53.242;6.974;2023-11-21T14:09:05;7.50;99.90
52731;DHT22;38624;53.242;6.974;2023-11-21T14:11:33;7.40;99.90
52731;DHT22;38624;53.242;6.974;2023-11-21T14:14:02;7.50;99.90
52731;DHT22;38624;53.242;6.974;2023-11-21T14:16:28;7.40;99.90
52731;DHT22;38624;53.242;6.974;2023-11-21T14:18:54;7.40;99.90
52731;DHT22;38624;53.242;6.974;2023-11-21T14:21:29;7.40;99.90
52731;DHT22;38624;53.242;6.974;2023-11-21T14:23:55;7.30;99.90
52731;DHT22;38624;53.242;6.974;2023-11-21T14:26:21;7.20;99.90
52731;DHT22;38624;53.242;6.974;2023-11-21T14:28:47;7.10;99.90
52731;DHT22;38624;53.242;6.974;2023-11-21T14:31:14;7.10;99.90
52731;DHT22;38624;53.242;6.974;2023-11-21T14:33:43;7.20;99.90
52731;DHT22;38624;53.242;6.974;2023-11-21T14:36:09;7.20;99.90
52731;DHT22;38624;53.242;6.974;2023-11-21T14:38:38;7.10;99.90
52731;DHT22;38624;53.242;6.974;2023-11-21T14:41:05;7.20;99.90
52731;DHT22;38624;53.242;6.974;2023-11-21T14:43:37;7.20;99.90
52731;DHT22;38624;53.242;6.974;2023-11-21T14:46:04;7.80;99.90
52731;DHT22;38624;53.242;6.974;2023-11-21T14:48:34;7.20;99.90
52731;DHT22;38624;53.242;6.974;2023-11-21T14:51:12;7.10;99.90
52731;DHT22;38624;53.242;6.974;2023-11-21T14:53:59;7.40;99.90
52731;DHT22;38624;53.242;6.974;2023-11-21T14:56:35;7.30;99.90
52731;DHT22;38624;53.242;6.974;2023-11-21T14:59:02;7.30;99.90
52731;DHT22;38624;53.242;6.974;2023-11-21T15:01:34;7.10;99.90
52731;DHT22;38624;53.242;6.974;2023-11-21T15:04:32;7.20;99.90
52731;DHT22;38624;53.242;6.974;2023-11-21T15:07:05;7.20;99.90
52731;DHT22;38624;53.242;6.974;2023-11-21T15:09:31;7.10;99.90
52731;DHT22;38624;53.242;6.974;2023-11-21T15:11:57;7.00;99.90
52731;DHT22;38624;53.242;6.974;2023-11-21T15:14:29;6.90;99.90
52731;DHT22;38624;53.242;6.974;2023-11-21T15:17:00;6.90;99.90
52731;DHT22;38624;53.242;6.974;2023-11-21T15:19:27;6.80;99.90
52731;DHT22;38624;53.242;6.974;2023-11-21T15:21:54;6.60;99.90
52731;DHT22;38624;53.242;6.974;2023-11-21T15:24:20;6.70;99.90
52731;DHT22;38624;53.242;6.974;2023-11-21T15:26:46;6.40;99.90
52731;DHT22;38624;53.242;6.974;2023-11-21T15:29:11;6.30;99.90
52731;DHT22;38624;53.242;6.974;2023-11-21T15:31:39;6.50;99.90
52731;DHT22;38624;53.242;6.974;2023-11-21T15:34:09;6.30;99.90
52731;DHT22;38624;53.242;6.974;2023-11-21T15:36:35;6.90;99.90
52731;DHT22;38624;53.242;6.974;2023-11-21T15:39:02;6.20;99.90
52731;DHT22;38624;53.242;6.974;2023-11-21T15:41:28;6.10;99.90
52731;DHT22;38624;53.242;6.974;2023-11-21T15:43:54;6.10;99.90
52731;DHT22;38624;53.242;6.974;2023-11-21T15:46:20;6.30;99.90
52731;DHT22;38624;53.242;6.974;2023-11-21T15:48:45;6.00;99.90
52731;DHT22;38624;53.242;6.974;2023-11-21T15:51:19;6.00;99.90
52731;DHT22;38624;53.242;6.974;2023-11-21T15:53:45;6.00;99.90
52731;DHT22;38624;53.242;6.974;2023-11-21T15:56:11;6.60;99.90
52731;DHT22;38624;53.242;6.974;2023-11-21T15:58:41;5.90;99.90
52731;DHT22;38624;53.242;6.974;2023-11-21T16:01:11;6.70;99.90
52731;DHT22;38624;53.242;6.974;2023-11-21T16:03:38;6.20;99.90